Time;durP1;ratioP1;P1;durP2;ratioP2;P2;SDS_P1;SDS_P2;PMS_P1;PMS_P2;Temp;Humidity;BMP_temperature;BMP_pressure;BME280_temperature;BME280_humidity;BME280_pressure;Samples;Min_cycle;Max_cycle;Signal;HPM_P1;HPM_P2
2022/03/20 00:01:35;;;;;;;4.50;3.50;;;18.20;29.20;20.90;94658.00;;;;10357488;28;45330;-61
2022/03/20 00:06:35;;;;;;;5.07;3.33;;;18.20;29.20;20.90;94670.00;;;;10356839;28;45276;-61
2022/03/20 00:11:36;;;;;;;5.30;3.22;;;18.20;29.20;20.90;94663.00;;;;10372810;28;45542;-61
2022/03/20 00:16:36;;;;;;;5.15;3.30;;;18.20;29.20;20.90;94659.00;;;;10356599;28;45567;-61
2022/03/20 00:21:37;;;;;;;4.47;2.85;;;18.20;29.20;20.80;94648.00;;;;10371514;28;46997;-60
2022/03/20 00:26:39;;;;;;;4.47;3.10;;;18.10;29.20;20.80;94671.00;;;;10371285;28;45424;-61
2022/03/20 00:31:40;;;;;;;6.15;3.47;;;18.20;29.20;20.80;94673.00;;;;10356498;28;46249;-60
2022/03/20 00:36:40;;;;;;;6.50;3.42;;;18.20;29.60;20.80;94658.00;;;;10370940;28;47415;-61
2022/03/20 00:41:42;;;;;;;5.35;3.72;;;18.10;29.20;20.80;94663.00;;;;10371293;28;46981;-61
2022/03/20 00:46:43;;;;;;;5.05;3.40;;;18.10;29.10;20.80;94661.00;;;;10355730;28;45309;-61
2022/03/20 00:51:44;;;;;;;5.53;3.50;;;18.10;29.20;20.80;94661.00;;;;10371177;28;45223;-61
2022/03/20 00:56:44;;;;;;;5.53;3.60;;;18.10;29.10;20.80;94668.00;;;;10370822;28;45176;-62
2022/03/20 01:01:45;;;;;;;6.53;3.60;;;18.10;29.20;20.80;94672.00;;;;10371156;28;46729;-61
2022/03/20 01:06:46;;;;;;;5.05;3.20;;;18.10;29.10;20.80;94670.00;;;;10370295;28;47894;-62
2022/03/20 01:11:46;;;;;;;5.20;3.40;;;18.10;29.20;20.80;94663.00;;;;10355206;28;46040;-61
2022/03/20 01:16:48;;;;;;;4.85;3.50;;;18.10;29.10;20.70;94655.00;;;;10369725;28;45564;-61
2022/03/20 01:21:49;;;;;;;4.60;3.30;;;18.10;29.20;20.70;94662.00;;;;10394584;22;47139;-63
2022/03/20 01:26:50;;;;;;;4.88;3.35;;;18.10;29.10;20.70;94665.00;;;;10337133;28;46912;-64
2022/03/20 01:31:51;;;;;;;5.30;3.30;;;18.10;29.20;20.70;94669.00;;;;10354223;28;45342;-64
2022/03/20 01:36:51;;;;;;;4.80;3.40;;;18.10;29.10;20.70;94658.00;;;;10335828;28;47269;-63
2022/03/20 01:41:52;;;;;;;4.95;3.45;;;18.10;29.20;20.70;94658.00;;;;10354346;28;45242;-63
2022/03/20 01:46:53;;;;;;;5.13;3.78;;;18.10;29.10;20.70;94674.00;;;;10352838;28;45406;-63
2022/03/20 01:57:19;;;;;;;4.82;3.40;;;18.00;29.10;20.70;94665.00;;;;10352534;28;45575;-63
2022/03/20 02:02:20;;;;;;;4.35;3.10;;;18.00;29.00;20.70;94666.00;;;;10347471;28;47077;-63
2022/03/20 02:07:21;;;;;;;5.22;3.70;;;18.00;29.10;20.70;94658.00;;;;10350783;28;45423;-63
2022/03/20 02:12:21;;;;;;;4.20;3.17;;;18.00;29.10;20.70;94660.00;;;;10352734;28;45347;-63
2022/03/20 02:17:22;;;;;;;4.72;3.47;;;18.00;29.10;20.70;94671.00;;;;10351891;28;45386;-64
2022/03/20 02:22:24;;;;;;;5.60;3.72;;;18.00;29.00;20.70;94668.00;;;;10335619;28;47115;-64
2022/03/20 02:27:27;;;;;;;5.00;3.45;;;18.00;29.00;20.70;94665.00;;;;10351867;28;46259;-64
2022/03/20 02:32:32;;;;;;;5.65;3.67;;;18.00;29.00;20.70;94665.00;;;;10351879;28;45623;-64
2022/03/20 02:37:34;;;;;;;4.85;3.50;;;18.00;29.00;20.60;94674.00;;;;10334496;28;47203;-63
2022/03/20 02:42:38;;;;;;;5.90;3.70;;;18.00;29.00;20.70;94672.00;;;;10351408;28;45464;-63
2022/03/20 02:47:42;;;;;;;4.90;3.60;;;18.00;29.00;20.60;94680.00;;;;10340557;28;47055;-63
2022/03/20 02:52:51;;;;;;;4.95;3.45;;;18.00;29.50;20.60;94674.00;;;;10358333;28;45406;-64
2022/03/20 02:57:55;;;;;;;5.50;3.65;;;18.00;29.00;20.60;94675.00;;;;10358232;28;45427;-64
2022/03/20 03:02:58;;;;;;;5.20;3.63;;;18.00;29.00;20.60;94680.00;;;;10358160;28;45227;-64
2022/03/20 03:13:21;;;;;;;6.82;3.75;;;18.00;29.00;20.60;94681.00;;;;10358171;28;45196;-64
2022/03/20 03:18:23;;;;;;;5.93;3.70;;;18.00;29.00;20.60;94680.00;;;;10356971;28;45403;-64
2022/03/20 03:23:25;;;;;;;4.72;3.50;;;18.00;29.00;20.60;94685.00;;;;10358275;28;45280;-64
2022/03/20 03:28:33;;;;;;;4.93;3.55;;;18.00;29.00;20.60;94681.00;;;;10357064;28;45448;-63
2022/03/20 03:35:41;;;;;;;5.30;3.72;;;18.00;29.00;20.60;94702.00;;;;10357790;28;45565;-61
2022/03/20 03:38:57;;;;;;;4.32;3.40;;;17.90;28.90;20.60;94691.00;;;;10357468;28;45382;-61
2022/03/20 03:43:58;;;;;;;5.40;3.65;;;17.90;28.90;20.60;94681.00;;;;10356988;28;47124;-61
2022/03/20 03:48:58;;;;;;;4.70;3.30;;;17.90;28.90;20.60;94696.00;;;;10356468;28;45509;-61
2022/03/20 03:53:59;;;;;;;5.72;3.45;;;17.90;28.90;20.60;94693.00;;;;10340093;28;46829;-62
2022/03/20 03:59:00;;;;;;;4.95;3.55;;;17.90;28.90;20.60;94704.00;;;;10356201;28;45176;-61
2022/03/20 04:04:00;;;;;;;5.03;3.53;;;17.90;28.90;20.60;94714.00;;;;10357606;28;45239;-63
2022/03/20 04:09:01;;;;;;;4.93;3.55;;;17.90;28.90;20.60;94718.00;;;;10357329;28;45635;-62
2022/03/20 04:14:02;;;;;;;5.45;3.80;;;17.90;28.90;20.60;94723.00;;;;10339845;28;47975;-61
2022/03/20 04:19:03;;;;;;;5.20;3.67;;;17.90;28.90;20.50;94722.00;;;;10355503;28;45294;-62
2022/03/20 04:24:05;;;;;;;6.18;4.00;;;17.90;28.90;20.50;94722.00;;;;10356976;28;45177;-62
2022/03/20 04:29:05;;;;;;;5.43;3.67;;;17.90;28.90;20.50;94721.00;;;;10354642;28;46909;-62
2022/03/20 04:34:06;;;;;;;6.47;4.10;;;17.90;28.90;20.50;94718.00;;;;10355327;28;46434;-61
2022/03/20 04:39:07;;;;;;;4.88;3.78;;;17.90;28.90;20.50;94739.00;;;;10354564;28;46314;-62
2022/03/20 04:44:12;;;;;;;4.82;3.28;;;17.90;28.90;20.50;94728.00;;;;10371711;28;46582;-62
2022/03/20 04:59:50;;;;;;;4.93;3.53;;;17.90;28.90;20.50;94745.00;;;;10355129;28;45235;-62
2022/03/20 05:04:52;;;;;;;6.60;4.05;;;17.90;28.90;20.50;94754.00;;;;10337629;28;47266;-62
2022/03/20 05:15:12;;;;;;;5.53;3.83;;;17.90;28.90;20.60;94759.00;;;;10355479;28;45240;-61
2022/03/20 05:20:14;;;;;;;5.40;3.50;;;17.90;28.90;20.60;94761.00;;;;10354602;28;45200;-62
2022/03/20 05:25:17;;;;;;;6.63;3.70;;;17.90;28.90;20.60;94775.00;;;;10354949;28;45442;-62
2022/03/20 05:30:17;;;;;;;5.47;3.58;;;18.00;28.90;20.60;94763.00;;;;10352863;28;46194;-62
2022/03/20 05:35:18;;;;;;;5.85;4.13;;;18.00;28.90;20.70;94782.00;;;;10336609;28;47559;-61
2022/03/20 05:40:19;;;;;;;5.65;3.70;;;18.00;28.90;20.70;94794.00;;;;10352758;28;46303;-60
2022/03/20 05:45:20;;;;;;;5.55;3.85;;;18.10;28.90;20.70;94789.00;;;;10353673;28;46620;-61
2022/03/20 05:50:23;;;;;;;5.15;3.75;;;18.10;29.20;20.70;94788.00;;;;10353873;28;45569;-64
2022/03/20 05:58:01;;;;;;;5.20;3.72;;;18.10;28.80;20.70;94791.00;;;;10354524;28;45481;-60
2022/03/20 06:00:44;;;;;;;5.60;3.67;;;18.10;28.80;20.80;94792.00;;;;10352411;28;46321;-61
2022/03/20 06:05:47;;;;;;;5.57;3.60;;;18.20;28.80;20.80;94793.00;;;;10351847;28;45264;-61
2022/03/20 06:10:48;;;;;;;5.43;3.28;;;18.20;28.80;20.80;94796.00;;;;10353386;28;45356;-62
2022/03/20 06:15:49;;;;;;;5.07;3.60;;;18.20;28.70;20.80;94796.00;;;;10353883;28;45197;-62
2022/03/20 06:20:49;;;;;;;4.88;3.58;;;18.20;28.70;20.80;94821.00;;;;10351664;28;46601;-62
2022/03/20 06:25:52;;;;;;;5.18;3.67;;;18.20;28.80;20.80;94814.00;;;;10353141;28;45299;-61
2022/03/20 06:30:53;;;;;;;5.15;3.88;;;18.20;28.50;20.80;94835.00;;;;10352335;28;45331;-60
2022/03/20 06:35:54;;;;;;;5.95;3.65;;;18.20;28.70;20.80;94840.00;;;;10335623;28;47284;-62
2022/03/20 06:40:55;;;;;;;5.10;3.63;;;18.20;28.70;20.90;94842.00;;;;10353240;28;45417;-61
2022/03/20 06:45:57;;;;;;;4.93;3.65;;;18.30;28.70;20.90;94828.00;;;;10335013;28;46864;-61
2022/03/20 06:50:58;;;;;;;4.78;3.25;;;18.30;28.70;20.90;94848.00;;;;10351976;28;45333;-62
2022/03/20 06:55:59;;;;;;;5.60;3.60;;;18.30;28.70;20.90;94855.00;;;;10351500;28;45435;-61
2022/03/20 07:01:00;;;;;;;5.55;3.70;;;18.30;28.70;20.90;94835.00;;;;10334819;28;47293;-61
2022/03/20 07:06:01;;;;;;;5.55;3.80;;;18.30;28.70;20.90;94862.00;;;;10350751;28;47657;-62
2022/03/20 07:11:02;;;;;;;4.85;3.80;;;18.30;28.70;21.00;94873.00;;;;10351023;28;45322;-61
2022/03/20 07:16:03;;;;;;;6.07;3.60;;;18.40;28.80;21.00;94864.00;;;;10360946;28;47066;-61
2022/03/20 07:21:04;;;;;;;6.65;3.70;;;18.40;28.80;21.00;94872.00;;;;10343987;28;47294;-62
2022/03/20 07:31:24;;;;;;;5.13;3.80;;;18.40;28.80;21.00;94873.00;;;;10352823;28;45062;-62
2022/03/20 07:36:24;;;;;;;5.40;3.83;;;18.40;28.80;21.00;94880.00;;;;10373873;28;46989;-61
2022/03/20 07:41:25;;;;;;;5.38;3.72;;;18.40;28.80;21.00;94900.00;;;;10332095;28;46601;-61
2022/03/20 07:46:26;;;;;;;4.63;3.63;;;18.40;28.90;21.00;94908.00;;;;10294183;28;46563;-61
2022/03/20 07:51:30;;;;;;;5.00;3.38;;;18.40;28.90;21.00;94910.00;;;;10314866;28;48113;-61
2022/03/20 07:56:35;;;;;;;8.15;3.90;;;18.40;28.90;21.10;94900.00;;;;10307063;28;47280;-61
2022/03/20 08:01:37;;;;;;;5.53;3.80;;;18.40;29.00;21.10;94908.00;;;;10332222;28;47141;-61
2022/03/20 08:06:37;;;;;;;6.88;3.88;;;18.40;29.00;21.10;94925.00;;;;10316967;28;45494;-60
2022/03/20 08:11:38;;;;;;;4.85;3.55;;;18.40;29.00;21.10;94921.00;;;;10316484;28;45384;-61
2022/03/20 08:16:39;;;;;;;6.80;4.43;;;18.40;29.00;21.10;94912.00;;;;10332110;28;47200;-63
2022/03/20 08:21:39;;;;;;;7.28;4.82;;;18.50;28.90;21.10;94916.00;;;;10331536;28;47132;-61
2022/03/20 08:26:41;;;;;;;6.20;3.95;;;18.50;28.80;21.10;94900.00;;;;10313024;28;47029;-63
2022/03/20 08:31:45;;;;;;;7.68;3.90;;;18.50;28.90;21.10;94907.00;;;;10331085;28;45504;-61
2022/03/20 08:36:46;;;;;;;6.82;4.18;;;18.60;29.20;21.20;94914.00;;;;10330657;28;47086;-61
2022/03/20 08:41:47;;;;;;;6.43;3.80;;;18.60;29.30;21.30;94897.00;;;;10331508;28;45664;-63
2022/03/20 08:46:49;;;;;;;7.13;4.10;;;18.70;29.30;21.20;94923.00;;;;10313615;28;47222;-60
2022/03/20 08:51:49;;;;;;;9.90;4.93;;;18.80;28.80;21.20;94915.00;;;;10354227;28;45197;-61
2022/03/20 08:56:50;;;;;;;6.80;4.43;;;18.70;28.70;21.20;94913.00;;;;10339003;28;45542;-61
2022/03/20 09:01:51;;;;;;;6.25;4.05;;;18.70;29.10;21.20;94916.00;;;;10312826;28;47397;-60
2022/03/20 09:06:51;;;;;;;7.85;4.00;;;18.70;29.30;21.20;94917.00;;;;10312813;28;45611;-59
2022/03/20 09:11:52;;;;;;;8.43;4.03;;;18.70;29.70;21.20;94904.00;;;;10287594;28;46407;-60
2022/03/20 09:22:16;;;;;;;6.45;3.75;;;18.70;30.10;21.20;94891.00;;;;10272913;28;45170;-60
2022/03/20 09:27:16;;;;;;;7.82;3.78;;;18.70;30.30;21.20;94891.00;;;;10271274;28;45970;-60
2022/03/20 09:32:17;;;;;;;7.32;4.05;;;18.70;30.60;21.20;94892.00;;;;10273618;28;45607;-60
2022/03/20 09:37:18;;;;;;;7.28;3.97;;;18.70;30.80;21.20;94884.00;;;;10271010;28;47198;-59
2022/03/20 09:42:19;;;;;;;6.35;3.88;;;18.70;30.90;21.20;94892.00;;;;10319738;28;47298;-60
2022/03/20 09:47:23;;;;;;;7.03;3.90;;;18.70;31.10;21.20;94906.00;;;;10365430;28;45276;-60
2022/03/20 09:52:25;;;;;;;7.13;3.78;;;18.70;31.30;21.20;94910.00;;;;10368875;28;45308;-60
2022/03/20 09:57:29;;;;;;;5.45;3.70;;;18.70;31.50;21.20;94914.00;;;;10353588;28;45570;-60
2022/03/20 10:02:30;;;;;;;6.47;3.67;;;18.70;31.70;21.20;94916.00;;;;10352730;28;46309;-60
2022/03/20 10:07:33;;;;;;;5.80;3.72;;;18.70;31.90;21.20;94902.00;;;;10368829;28;46462;-60
2022/03/20 10:12:37;;;;;;;6.60;3.70;;;18.70;31.90;21.20;94919.00;;;;10368823;28;45224;-60
2022/03/20 10:17:39;;;;;;;5.70;3.60;;;18.70;32.00;21.20;94913.00;;;;10351307;28;47975;-60
2022/03/20 10:22:40;;;;;;;4.68;3.35;;;18.70;32.00;21.20;94906.00;;;;10352393;28;47015;-62
2022/03/20 10:28:00;;;;;;;6.15;3.33;;;18.60;32.10;21.20;94915.00;;;;10368841;28;46959;-61
2022/03/20 10:33:13;;;;;;;6.40;4.00;;;18.70;32.30;21.20;94929.00;;;;10368684;28;45588;-61
2022/03/20 10:38:14;;;;;;;6.43;3.65;;;18.60;32.30;21.20;94932.00;;;;10367622;28;45462;-62
2022/03/20 10:43:17;;;;;;;5.95;3.83;;;18.60;32.30;21.20;94933.00;;;;10367967;28;45222;-61
2022/03/20 10:48:39;;;;;;;5.68;4.00;;;18.70;32.60;21.20;94933.00;;;;10367877;28;45374;-61
2022/03/20 10:53:55;;;;;;;6.82;3.95;;;18.60;32.30;21.10;94931.00;;;;10368801;28;47009;-62
2022/03/20 10:58:57;;;;;;;8.35;4.03;;;18.60;32.20;21.10;94938.00;;;;10344576;28;47041;-62
2022/03/20 11:04:00;;;;;;;6.82;3.80;;;18.60;32.60;21.20;94929.00;;;;10298438;28;47410;-62
2022/03/20 11:09:04;;;;;;;5.07;3.60;;;18.70;32.60;21.30;94926.00;;;;10352397;28;45962;-58
2022/03/20 11:14:06;;;;;;;7.63;3.65;;;18.70;33.00;21.30;94921.00;;;;10333827;28;45456;-63
2022/03/20 11:19:13;;;;;;;5.43;3.50;;;18.80;33.30;21.30;94907.00;;;;10315432;28;46547;-61
2022/03/20 11:24:16;;;;;;;5.68;3.05;;;18.80;33.20;21.30;94916.00;;;;10303688;28;48043;-63
2022/03/20 11:29:21;;;;;;;5.15;3.10;;;18.90;33.30;21.30;94918.00;;;;10276456;28;45561;-59
2022/03/20 11:34:25;;;;;;;5.05;3.33;;;18.80;33.40;21.30;94924.00;;;;10296120;28;45312;-59
2022/03/20 11:39:25;;;;;;;9.38;4.00;;;18.80;33.10;21.30;94911.00;;;;10315463;28;46942;-60
2022/03/20 11:44:27;;;;;;;7.65;3.97;;;18.80;33.00;21.30;94902.00;;;;10332261;28;47316;-60
2022/03/20 11:49:29;;;;;;;6.18;3.45;;;18.80;33.20;21.30;94914.00;;;;10332260;28;45382;-60
2022/03/20 11:54:31;;;;;;;7.15;3.53;;;18.80;33.00;21.40;94904.00;;;;10332199;28;45328;-60
2022/03/20 11:59:48;;;;;;;9.10;4.32;;;18.80;33.10;21.30;94907.00;;;;10331813;28;45461;-60
2022/03/20 12:05:24;;;;;;;5.65;3.90;;;18.80;32.90;21.30;94900.00;;;;10334766;28;47897;-61
2022/03/20 12:10:35;;;;;;;6.57;3.43;;;18.80;32.60;21.30;94882.00;;;;10307262;28;46107;-61
2022/03/20 12:15:45;;;;;;;7.90;3.88;;;18.80;32.40;21.40;94886.00;;;;10331876;28;45346;-60
2022/03/20 12:20:52;;;;;;;5.60;3.55;;;18.80;32.30;21.30;94891.00;;;;10314635;28;46646;-61
2022/03/20 12:25:53;;;;;;;8.00;3.60;;;18.80;32.20;21.40;94881.00;;;;10308050;28;47035;-59
2022/03/20 12:30:54;;;;;;;6.88;3.67;;;18.80;32.10;21.40;94882.00;;;;10309457;28;45256;-60
2022/03/20 12:35:55;;;;;;;5.93;3.33;;;18.80;32.10;21.30;94869.00;;;;10298239;28;45420;-60
2022/03/20 12:40:56;;;;;;;6.15;3.50;;;18.80;32.10;21.30;94879.00;;;;10305748;28;45639;-61
2022/03/20 12:45:57;;;;;;;5.40;3.40;;;18.80;32.00;21.30;94871.00;;;;10316045;28;45204;-61
2022/03/20 12:51:07;;;;;;;6.22;3.30;;;18.90;32.00;21.40;94866.00;;;;10313311;28;47366;-60
2022/03/20 12:56:23;;;;;;;7.95;3.72;;;18.90;31.90;21.30;94856.00;;;;10288672;28;45439;-60
2022/03/20 13:01:25;;;;;;;5.63;3.30;;;18.80;31.60;21.30;94862.00;;;;10292838;28;48110;-60
2022/03/20 13:06:29;;;;;;;5.95;3.38;;;18.90;31.60;21.40;94857.00;;;;10313126;28;45313;-61
2022/03/20 13:11:51;;;;;;;5.47;3.08;;;18.90;31.60;21.40;94852.00;;;;10310131;28;45302;-60
2022/03/20 13:16:58;;;;;;;5.38;2.95;;;18.90;31.80;21.40;94862.00;;;;10304447;28;46031;-60
2022/03/20 13:22:10;;;;;;;5.53;3.00;;;18.90;31.70;21.40;94852.00;;;;10328495;28;45435;-60
2022/03/20 13:27:12;;;;;;;6.78;3.35;;;18.90;31.80;21.40;94849.00;;;;10357194;23;45334;-61
2022/03/20 13:32:13;;;;;;;4.75;2.80;;;18.90;31.80;21.40;94840.00;;;;10353092;28;46245;-62
2022/03/20 13:37:16;;;;;;;5.03;2.63;;;18.90;31.60;21.40;94830.00;;;;10345181;28;46275;-60
2022/03/20 13:42:20;;;;;;;4.50;2.63;;;18.90;31.50;21.40;94838.00;;;;10354752;28;45462;-62
2022/03/20 13:47:22;;;;;;;4.43;2.70;;;18.90;31.50;21.40;94835.00;;;;10369421;28;46228;-62
2022/03/20 13:52:31;;;;;;;5.38;2.80;;;18.90;31.40;21.50;94846.00;;;;10369703;28;45287;-61
2022/03/20 13:57:34;;;;;;;6.18;3.00;;;18.90;31.30;21.40;94823.00;;;;10368128;28;45367;-61
2022/03/20 14:02:48;;;;;;;4.45;2.60;;;18.90;31.30;21.50;94834.00;;;;10342779;28;46559;-60
2022/03/20 14:08:03;;;;;;;4.22;2.63;;;18.90;31.20;21.50;94822.00;;;;10307320;28;47442;-60
2022/03/20 14:13:24;;;;;;;4.07;2.65;;;18.90;31.10;21.40;94827.00;;;;10327869;28;46864;-60
2022/03/20 14:18:25;;;;;;;5.15;2.60;;;18.90;31.00;21.40;94827.00;;;;10326820;28;48001;-60
2022/03/20 14:23:27;;;;;;;4.95;2.55;;;18.90;30.90;21.40;94825.00;;;;10327812;28;45255;-60
2022/03/20 14:28:30;;;;;;;4.07;2.35;;;18.90;30.70;21.40;94821.00;;;;10310721;28;47165;-61
2022/03/20 14:44:14;;;;;;;3.45;2.20;;;18.90;30.80;21.50;94829.00;;;;10319436;28;45204;-63
2022/03/20 14:49:16;;;;;;;3.58;2.40;;;18.90;30.80;21.40;94819.00;;;;10317839;28;47016;-61
2022/03/20 14:54:17;;;;;;;5.72;2.40;;;18.90;30.80;21.50;94831.00;;;;10334635;28;45488;-61
2022/03/20 14:59:18;;;;;;;3.28;2.30;;;18.90;30.70;21.50;94821.00;;;;10318800;28;45362;-61
2022/03/20 15:04:21;;;;;;;3.50;2.30;;;18.90;30.60;21.50;94810.00;;;;10317555;28;46863;-61
2022/03/20 15:14:42;;;;;;;3.65;2.40;;;19.00;30.80;21.50;94810.00;;;;10331896;28;45942;-61
2022/03/20 15:19:43;;;;;;;4.13;2.30;;;19.00;30.80;21.50;94802.00;;;;10318657;28;45587;-62
2022/03/20 15:24:43;;;;;;;4.45;2.20;;;19.00;30.80;21.50;94819.00;;;;10333507;28;45319;-61
2022/03/20 15:29:44;;;;;;;3.85;2.10;;;19.00;30.80;21.50;94793.00;;;;10318201;28;45136;-61
2022/03/20 15:34:45;;;;;;;3.60;1.90;;;19.00;30.80;21.50;94810.00;;;;10317686;28;45458;-61
2022/03/20 15:39:46;;;;;;;3.58;2.13;;;19.00;30.80;21.50;94806.00;;;;10333421;28;45570;-61
2022/03/20 15:44:46;;;;;;;5.50;2.40;;;19.00;30.60;21.50;94800.00;;;;10316509;28;45300;-62
2022/03/20 15:49:48;;;;;;;3.35;2.00;;;19.00;30.70;21.50;94784.00;;;;10327404;28;47346;-61
2022/03/20 15:54:50;;;;;;;4.75;2.10;;;19.00;30.50;21.50;94790.00;;;;10277336;28;46970;-61
2022/03/20 15:59:51;;;;;;;3.00;2.00;;;19.00;29.90;21.50;94784.00;;;;10295450;28;46669;-61
2022/03/20 16:04:54;;;;;;;3.67;1.88;;;19.00;30.10;21.50;94796.00;;;;10358647;28;45118;-62
2022/03/20 16:09:55;;;;;;;3.50;2.10;;;19.00;30.10;21.60;94808.00;;;;10317521;28;47064;-62
2022/03/20 16:14:56;;;;;;;4.00;2.00;;;19.10;30.20;21.60;94804.00;;;;10312149;28;45677;-63
2022/03/20 16:19:57;;;;;;;3.95;1.90;;;19.20;30.20;21.60;94814.00;;;;10301272;28;47530;-61
2022/03/20 16:30:18;;;;;;;3.08;1.70;;;19.20;30.20;21.60;94817.00;;;;10315973;28;45362;-64
2022/03/20 16:35:18;;;;;;;4.20;1.63;;;19.20;30.50;21.70;94805.00;;;;10315950;28;45375;-62
2022/03/20 16:40:20;;;;;;;3.97;1.80;;;19.20;30.60;21.70;94817.00;;;;10313197;28;46840;-62
2022/03/20 16:45:22;;;;;;;2.50;1.75;;;19.20;30.80;21.70;94811.00;;;;10329906;28;46993;-62
2022/03/20 16:50:23;;;;;;;3.45;1.90;;;19.20;31.10;21.70;94821.00;;;;10314061;28;47441;-61
2022/03/20 16:55:24;;;;;;;3.90;2.03;;;19.20;31.30;21.60;94812.00;;;;10298082;28;47715;-62
2022/03/20 17:00:25;;;;;;;3.88;1.75;;;19.20;31.50;21.60;94829.00;;;;10313243;28;47127;-63
2022/03/20 17:05:26;;;;;;;3.78;1.60;;;19.20;31.60;21.70;94832.00;;;;10337624;28;47305;-64
2022/03/20 17:10:27;;;;;;;4.72;1.80;;;19.20;31.70;21.60;94820.00;;;;10323318;28;46681;-63
2022/03/20 17:15:28;;;;;;;2.92;1.77;;;19.20;31.70;21.70;94833.00;;;;10330347;28;45501;-63
2022/03/20 17:20:29;;;;;;;4.03;1.98;;;19.20;31.70;21.60;94835.00;;;;10314082;28;45319;-63
2022/03/20 17:25:31;;;;;;;5.40;1.60;;;19.20;31.70;21.60;94834.00;;;;10307332;28;46414;-64
2022/03/20 17:30:34;;;;;;;2.88;1.60;;;19.10;31.60;21.70;94831.00;;;;10311294;28;45507;-62
2022/03/20 17:35:37;;;;;;;4.38;1.70;;;19.20;31.60;21.70;94837.00;;;;10313238;28;46077;-63
2022/03/20 17:40:39;;;;;;;5.93;1.92;;;19.20;31.50;21.70;94836.00;;;;10312738;28;45482;-62
2022/03/20 17:45:42;;;;;;;4.47;1.90;;;19.30;31.50;21.70;94841.00;;;;10328959;28;46414;-62
2022/03/20 17:50:43;;;;;;;5.45;1.85;;;19.20;31.50;21.70;94848.00;;;;10308123;28;47184;-62
2022/03/20 17:55:46;;;;;;;2.63;1.80;;;19.20;31.50;21.60;94842.00;;;;10327083;28;47746;-62
2022/03/20 18:00:47;;;;;;;2.83;1.95;;;19.10;31.50;21.60;94864.00;;;;10312150;28;47889;-63
2022/03/20 18:11:09;;;;;;;3.20;2.03;;;19.10;31.40;21.60;94858.00;;;;10311920;28;46052;-62
2022/03/20 18:16:10;;;;;;;2.78;1.70;;;19.10;31.30;21.60;94859.00;;;;10295239;28;47482;-63
2022/03/20 18:21:11;;;;;;;4.28;1.98;;;19.10;31.30;21.60;94862.00;;;;10312191;28;46244;-62
2022/03/20 18:26:12;;;;;;;4.68;1.92;;;19.10;31.30;21.60;94879.00;;;;10311730;28;45387;-62
2022/03/20 18:31:13;;;;;;;4.15;2.05;;;19.10;31.30;21.60;94882.00;;;;10311548;28;47147;-62
2022/03/20 18:36:14;;;;;;;3.83;1.98;;;19.10;31.90;21.60;94877.00;;;;10327683;28;45640;-62
2022/03/20 18:41:15;;;;;;;2.60;1.70;;;19.10;31.30;21.50;94888.00;;;;10313609;28;47402;-62
2022/03/20 18:46:15;;;;;;;3.08;1.77;;;19.00;30.40;21.40;94892.00;;;;10312418;28;45456;-64
2022/03/20 18:51:16;;;;;;;3.03;1.75;;;18.80;31.40;21.40;94899.00;;;;10310837;28;45332;-64
2022/03/20 18:56:19;;;;;;;4.95;1.73;;;18.70;31.50;21.50;94895.00;;;;10294004;28;48246;-63
2022/03/20 19:01:23;;;;;;;3.95;1.80;;;18.90;31.70;21.50;94908.00;;;;10311376;28;46369;-64
2022/03/20 19:06:25;;;;;;;3.30;1.70;;;18.90;31.90;21.60;94903.00;;;;10295300;28;47107;-63
2022/03/20 19:11:26;;;;;;;3.10;1.60;;;19.00;31.80;21.60;94911.00;;;;10312066;28;46353;-63
2022/03/20 19:16:26;;;;;;;2.65;1.60;;;19.00;31.70;21.60;94923.00;;;;10311563;28;46023;-63
2022/03/20 19:21:27;;;;;;;2.15;1.40;;;19.10;31.60;21.60;94926.00;;;;10311004;28;45169;-63
2022/03/20 19:26:28;;;;;;;3.25;1.60;;;19.10;31.60;21.70;94924.00;;;;10330337;23;47408;-64
2022/03/20 19:31:30;;;;;;;4.15;1.65;;;19.10;31.50;21.70;94929.00;;;;10357639;28;46636;-63
2022/03/20 19:41:49;;;;;;;3.28;1.65;;;19.10;31.40;21.70;94930.00;;;;10371197;28;45667;-63
2022/03/20 19:46:50;;;;;;;4.18;1.35;;;19.10;31.30;21.70;94925.00;;;;10374103;28;45265;-63
2022/03/20 19:51:51;;;;;;;3.30;1.45;;;19.10;31.30;21.70;94938.00;;;;10373841;28;45571;-64
2022/03/20 19:56:53;;;;;;;4.30;1.67;;;19.20;31.30;21.70;94937.00;;;;10374113;28;46441;-63
2022/03/20 20:01:56;;;;;;;4.05;1.58;;;19.10;31.30;21.70;94933.00;;;;10358286;28;46079;-64
2022/03/20 20:06:57;;;;;;;2.85;1.52;;;19.10;31.20;21.70;94935.00;;;;10372660;28;45437;-63
2022/03/20 20:11:58;;;;;;;1.80;1.30;;;19.20;31.30;21.70;94933.00;;;;10358342;28;45486;-64
2022/03/20 20:17:00;;;;;;;2.50;1.30;;;19.20;31.20;21.70;94945.00;;;;10357470;28;45478;-63
2022/03/20 20:22:02;;;;;;;3.45;1.40;;;19.20;31.20;21.70;94955.00;;;;10372295;28;45165;-62
2022/03/20 20:27:03;;;;;;;3.78;1.30;;;19.20;32.00;21.70;94947.00;;;;10371876;28;45327;-62
2022/03/20 20:32:05;;;;;;;2.03;1.10;;;19.10;31.20;21.70;94950.00;;;;10372257;28;45300;-62
2022/03/20 20:37:07;;;;;;;2.83;1.33;;;19.20;31.30;21.70;94968.00;;;;10356591;28;45171;-62
2022/03/20 20:42:07;;;;;;;2.22;1.23;;;19.10;31.20;21.70;94967.00;;;;10355041;28;47345;-61
2022/03/20 20:47:08;;;;;;;1.55;1.20;;;19.10;31.20;21.70;94974.00;;;;10371039;28;45097;-61
2022/03/20 20:52:09;;;;;;;2.38;1.40;;;19.10;31.20;21.70;94975.00;;;;10349825;28;45454;-62
2022/03/20 20:57:11;;;;;;;1.80;1.30;;;19.10;31.20;21.70;94984.00;;;;10347252;28;45400;-62
2022/03/20 21:02:12;;;;;;;4.25;1.35;;;19.10;31.10;21.70;94989.00;;;;10267388;28;46835;-62
2022/03/20 21:12:49;;;;;;;1.50;1.13;;;19.10;31.20;21.70;94992.00;;;;10264058;28;45420;-62
2022/03/20 21:17:49;;;;;;;3.03;1.38;;;19.10;31.10;21.70;94999.00;;;;10313712;28;45397;-61
2022/03/20 21:22:50;;;;;;;3.22;1.27;;;19.10;31.10;21.70;95003.00;;;;10330012;28;46608;-62
2022/03/20 21:27:53;;;;;;;2.03;1.20;;;19.10;31.20;21.70;95009.00;;;;10313910;28;45535;-62
2022/03/20 21:32:55;;;;;;;1.83;1.20;;;19.10;31.20;21.70;94999.00;;;;10310384;28;45350;-62
2022/03/20 21:37:56;;;;;;;2.10;1.50;;;19.00;31.20;21.70;95010.00;;;;10312205;28;46364;-61
2022/03/20 21:43:00;;;;;;;2.80;1.30;;;19.00;31.20;21.60;95004.00;;;;10329291;28;47332;-60
2022/03/20 21:48:04;;;;;;;2.35;1.27;;;19.00;31.30;21.60;95013.00;;;;10328748;28;47931;-65
2022/03/20 21:53:05;;;;;;;1.75;1.40;;;19.00;31.40;21.60;95002.00;;;;10325458;28;45592;-63
2022/03/20 21:58:08;;;;;;;2.75;1.30;;;18.90;31.60;21.60;95013.00;;;;10313864;28;46681;-62
2022/03/20 22:03:10;;;;;;;1.60;1.10;;;18.80;31.60;21.50;95008.00;;;;10320029;28;47304;-62
2022/03/20 22:08:11;;;;;;;2.00;1.30;;;18.80;31.60;21.50;95022.00;;;;10338088;28;47085;-62
2022/03/20 22:13:12;;;;;;;2.33;1.48;;;18.80;31.70;21.50;95018.00;;;;10312713;28;47284;-63
2022/03/20 22:18:13;;;;;;;2.42;1.20;;;18.80;31.70;21.50;95022.00;;;;10328448;28;45544;-63
2022/03/20 22:23:14;;;;;;;1.83;1.40;;;18.80;31.70;21.40;95017.00;;;;10328811;28;45258;-63
2022/03/20 22:28:14;;;;;;;2.03;1.40;;;18.70;31.60;21.40;95028.00;;;;10312817;28;45209;-63
2022/03/20 22:33:16;;;;;;;3.25;1.45;;;18.70;31.60;21.40;95030.00;;;;10327980;28;47148;-63
2022/03/20 22:38:16;;;;;;;2.30;1.10;;;18.70;31.60;21.40;95022.00;;;;10327947;28;45637;-62
2022/03/20 22:43:17;;;;;;;2.28;1.40;;;18.70;31.60;21.40;95015.00;;;;10312760;28;45751;-63
2022/03/20 22:53:37;;;;;;;2.53;1.05;;;18.70;31.60;21.40;95030.00;;;;10325866;28;45219;-62
2022/03/20 22:58:38;;;;;;;1.90;1.17;;;18.60;31.50;21.40;95020.00;;;;10327462;28;46397;-62
2022/03/20 23:03:39;;;;;;;1.52;1.10;;;18.70;31.60;21.30;95035.00;;;;10315664;28;46910;-62
2022/03/20 23:08:40;;;;;;;1.80;1.30;;;18.70;31.50;21.30;95024.00;;;;10334379;28;46170;-62
2022/03/20 23:13:41;;;;;;;2.13;1.33;;;18.60;31.50;21.30;95038.00;;;;10334952;28;45242;-62
2022/03/20 23:18:42;;;;;;;2.38;1.55;;;18.60;31.60;21.30;95021.00;;;;10317732;28;46652;-62
2022/03/20 23:23:43;;;;;;;1.52;1.13;;;18.60;31.50;21.30;95033.00;;;;10318142;28;47167;-62
2022/03/20 23:28:43;;;;;;;2.00;1.40;;;18.60;31.50;21.30;95024.00;;;;10317114;28;46979;-62